Time;durP1;ratioP1;P1;durP2;ratioP2;P2;SDS_P1;SDS_P2;PMS_P1;PMS_P2;Temp;Humidity;BMP_temperature;BMP_pressure;BME280_temperature;BME280_humidity;BME280_pressure;Samples;Min_cycle;Max_cycle;Signal;HPM_P1;HPM_P2
2023/12/01 00:02:21;;;;;;;43.67;16.83;;;2.10;99.90;;;;;;5092541;28;20427;-81
2023/12/01 00:04:47;;;;;;;43.03;18.83;;;2.10;99.90;;;;;;5093398;28;20024;-81
2023/12/01 00:07:14;;;;;;;39.37;16.17;;;2.00;99.90;;;;;;5078523;28;20093;-81
2023/12/01 00:09:40;;;;;;;43.17;17.63;;;2.00;99.90;;;;;;5096740;28;20028;-81
2023/12/01 00:12:06;;;;;;;41.93;16.93;;;1.90;99.90;;;;;;5096314;28;20464;-81
2023/12/01 00:14:31;;;;;;;43.53;16.37;;;1.90;99.90;;;;;;5078351;28;20039;-81
2023/12/01 00:16:57;;;;;;;34.40;13.63;;;1.80;99.90;;;;;;5096805;28;20123;-81
2023/12/01 00:19:23;;;;;;;33.77;15.13;;;1.80;99.90;;;;;;5078064;28;20369;-81
2023/12/01 00:21:48;;;;;;;31.70;13.33;;;1.80;99.90;;;;;;5078255;28;20056;-81
2023/12/01 00:24:14;;;;;;;37.10;15.77;;;1.70;99.90;;;;;;5097308;28;20024;-81
2023/12/01 00:26:40;;;;;;;38.93;14.80;;;1.70;99.90;;;;;;5097322;28;20399;-81
2023/12/01 00:29:06;;;;;;;37.80;14.70;;;1.70;99.90;;;;;;5096837;28;20531;-81
2023/12/01 00:31:31;;;;;;;33.80;13.23;;;1.70;99.90;;;;;;5078223;28;20391;-81
2023/12/01 00:33:57;;;;;;;39.90;13.87;;;1.70;99.90;;;;;;5095923;28;20039;-81
2023/12/01 00:36:22;;;;;;;37.97;15.30;;;1.70;99.90;;;;;;5077708;28;20057;-81
2023/12/01 00:38:48;;;;;;;34.77;14.17;;;1.70;99.90;;;;;;5077900;28;20074;-82
2023/12/01 00:41:14;;;;;;;41.50;14.70;;;1.70;99.90;;;;;;5095813;28;20486;-81
2023/12/01 00:43:39;;;;;;;42.60;15.20;;;1.70;99.90;;;;;;5077711;28;20031;-81
2023/12/01 00:46:05;;;;;;;42.60;16.97;;;1.70;99.90;;;;;;5095866;28;20066;-81
2023/12/01 00:48:31;;;;;;;47.37;15.97;;;1.70;99.90;;;;;;5077844;28;20110;-81
2023/12/01 00:50:57;;;;;;;37.70;14.77;;;1.70;99.90;;;;;;5077487;28;20012;-81
2023/12/01 00:53:22;;;;;;;50.50;16.80;;;1.70;99.90;;;;;;5077614;28;20063;-81
2023/12/01 00:55:48;;;;;;;49.97;17.63;;;1.70;99.90;;;;;;5098023;28;20028;-81
2023/12/01 00:58:13;;;;;;;48.87;15.63;;;1.70;99.90;;;;;;5096462;28;20107;-81
2023/12/01 01:00:40;;;;;;;51.77;18.17;;;1.60;99.90;;;;;;5095653;28;20035;-81
2023/12/01 01:03:06;;;;;;;52.70;18.27;;;1.60;99.90;;;;;;5095684;28;20024;-82
2023/12/01 01:05:32;;;;;;;60.37;20.30;;;1.60;99.90;;;;;;5077205;28;20395;-82
2023/12/01 01:07:57;;;;;;;66.60;22.03;;;1.50;99.90;;;;;;5095354;28;20027;-82
2023/12/01 01:10:23;;;;;;;63.40;21.37;;;1.50;99.90;;;;;;5095612;28;20418;-82
2023/12/01 01:12:48;;;;;;;66.53;24.10;;;1.50;99.90;;;;;;5083369;28;20028;-81
2023/12/01 01:15:14;;;;;;;66.20;22.57;;;1.50;99.90;;;;;;5099989;28;20020;-81
2023/12/01 01:17:40;;;;;;;55.97;18.43;;;1.50;99.90;;;;;;5095164;28;20020;-81
2023/12/01 01:20:07;;;;;;;59.60;19.10;;;1.40;99.90;;;;;;5076696;28;20012;-81
2023/12/01 01:22:33;;;;;;;58.67;19.17;;;1.50;99.90;;;;;;5077565;28;20020;-81
2023/12/01 01:24:59;;;;;;;54.00;19.83;;;1.50;99.90;;;;;;5095355;28;20361;-81
2023/12/01 01:27:24;;;;;;;55.80;18.63;;;1.50;99.90;;;;;;5097489;28;20023;-81
2023/12/01 01:29:51;;;;;;;58.90;20.17;;;1.50;99.90;;;;;;5103729;28;20495;-81
2023/12/01 01:32:16;;;;;;;64.07;20.63;;;1.50;99.90;;;;;;5095059;28;20077;-80
2023/12/01 01:34:42;;;;;;;59.20;18.87;;;1.50;99.90;;;;;;5076730;28;20483;-79
2023/12/01 01:37:07;;;;;;;62.73;21.87;;;1.60;99.90;;;;;;5094816;28;20584;-80
2023/12/01 01:39:34;;;;;;;72.70;23.17;;;1.50;99.90;;;;;;5076724;28;20016;-80
2023/12/01 01:42:00;;;;;;;71.13;22.47;;;1.50;99.90;;;;;;5094557;28;20107;-79
2023/12/01 01:44:26;;;;;;;68.80;22.03;;;1.50;99.90;;;;;;5104832;27;20165;-79
2023/12/01 01:46:52;;;;;;;62.60;19.90;;;1.60;99.90;;;;;;5095661;28;20046;-80
2023/12/01 01:49:23;;;;;;;61.60;19.80;;;1.50;99.90;;;;;;5094359;28;20032;-80
2023/12/01 01:51:49;;;;;;;62.27;21.07;;;1.50;99.90;;;;;;5094811;28;20024;-80
2023/12/01 01:54:16;;;;;;;79.63;24.97;;;1.60;99.90;;;;;;5094313;28;20405;-80
2023/12/01 01:56:42;;;;;;;72.90;24.53;;;1.50;99.90;;;;;;5076014;28;20028;-81
2023/12/01 01:59:08;;;;;;;74.23;24.17;;;1.60;99.90;;;;;;5076370;28;20024;-81
2023/12/01 02:01:39;;;;;;;77.03;22.23;;;1.60;99.90;;;;;;5094511;28;20108;-80
2023/12/01 02:04:07;;;;;;;73.10;24.70;;;1.60;99.90;;;;;;5094083;28;20111;-80
2023/12/01 02:06:33;;;;;;;72.87;23.00;;;1.60;99.90;;;;;;5076125;28;20028;-80
2023/12/01 02:09:00;;;;;;;67.50;22.70;;;1.60;99.90;;;;;;5094463;28;20089;-80
2023/12/01 02:11:25;;;;;;;80.37;24.13;;;1.60;99.90;;;;;;5094364;28;20024;-80
2023/12/01 02:13:59;;;;;;;80.37;25.17;;;1.60;99.90;;;;;;5094244;28;20051;-80
2023/12/01 02:16:25;;;;;;;78.57;24.90;;;1.60;99.90;;;;;;5075982;28;20026;-80
2023/12/01 02:18:54;;;;;;;68.43;21.77;;;1.60;99.90;;;;;;5075889;28;20103;-80
2023/12/01 02:21:24;;;;;;;68.87;20.83;;;1.60;99.90;;;;;;5087206;28;20072;-80
2023/12/01 02:23:54;;;;;;;73.30;24.87;;;1.70;99.90;;;;;;5093879;28;20035;-80
2023/12/01 02:26:22;;;;;;;70.60;23.77;;;1.70;99.90;;;;;;5094123;28;20376;-79
2023/12/01 02:28:48;;;;;;;75.63;25.03;;;1.70;99.90;;;;;;5075087;28;20020;-82
2023/12/01 02:31:14;;;;;;;71.13;23.13;;;1.70;99.90;;;;;;5093837;28;20016;-82
2023/12/01 02:33:40;;;;;;;69.30;22.97;;;1.70;99.90;;;;;;5093634;28;20522;-80
2023/12/01 02:36:08;;;;;;;69.93;24.50;;;1.80;99.90;;;;;;5093908;28;20023;-82
2023/12/01 02:38:34;;;;;;;77.20;24.60;;;1.70;99.90;;;;;;5094001;28;20093;-81
2023/12/01 02:41:02;;;;;;;78.43;23.17;;;1.80;99.90;;;;;;5105910;22;20064;-80
2023/12/01 02:43:28;;;;;;;68.07;24.27;;;1.80;99.90;;;;;;5084149;28;20050;-81
2023/12/01 02:45:54;;;;;;;71.53;24.47;;;1.80;99.90;;;;;;5104466;28;20024;-81
2023/12/01 02:48:19;;;;;;;69.60;22.57;;;1.80;99.90;;;;;;5102373;28;20047;-81
2023/12/01 02:50:45;;;;;;;64.07;24.90;;;1.80;99.90;;;;;;5104348;28;20016;-80
2023/12/01 02:53:11;;;;;;;62.17;22.90;;;1.90;99.90;;;;;;5103110;28;20043;-79
2023/12/01 02:55:36;;;;;;;71.90;24.60;;;1.90;99.90;;;;;;5085140;28;20030;-79
2023/12/01 02:58:02;;;;;;;70.30;24.70;;;1.90;99.90;;;;;;5104326;28;20525;-80
2023/12/01 03:00:29;;;;;;;69.07;25.20;;;1.90;99.90;;;;;;5102816;28;20424;-80
2023/12/01 03:02:55;;;;;;;68.97;23.80;;;2.00;99.90;;;;;;5104018;28;20541;-80
2023/12/01 03:05:21;;;;;;;68.50;25.10;;;1.90;99.90;;;;;;5102432;28;20028;-80
2023/12/01 03:07:48;;;;;;;70.47;25.40;;;1.90;99.90;;;;;;5085521;28;20392;-80
2023/12/01 03:10:14;;;;;;;68.73;25.13;;;2.00;99.90;;;;;;5084921;28;20020;-80
2023/12/01 03:12:41;;;;;;;64.07;23.93;;;2.00;99.90;;;;;;5096622;28;20032;-79
2023/12/01 03:15:10;;;;;;;71.07;23.70;;;1.90;99.90;;;;;;5082573;28;20032;-79
2023/12/01 03:17:37;;;;;;;60.87;24.20;;;2.00;99.90;;;;;;5063464;28;20021;-80
2023/12/01 03:20:10;;;;;;;68.67;24.60;;;2.00;99.90;;;;;;5065493;28;20568;-80
2023/12/01 03:22:38;;;;;;;64.30;24.50;;;2.00;99.90;;;;;;5064106;28;20021;-80
2023/12/01 03:25:09;;;;;;;62.33;23.27;;;2.00;99.90;;;;;;5065715;28;20027;-80
2023/12/01 03:27:36;;;;;;;59.20;22.83;;;2.00;99.90;;;;;;5064823;28;20028;-80
2023/12/01 03:30:02;;;;;;;59.97;22.23;;;2.00;99.90;;;;;;5064224;28;20518;-80
2023/12/01 03:32:28;;;;;;;58.00;22.10;;;2.10;99.90;;;;;;5083744;28;20036;-80
2023/12/01 03:34:54;;;;;;;57.80;21.40;;;2.10;99.90;;;;;;5063929;28;20112;-81
2023/12/01 03:37:20;;;;;;;60.27;22.27;;;2.10;99.90;;;;;;5083435;28;20031;-80
2023/12/01 03:39:45;;;;;;;57.10;22.00;;;2.10;99.90;;;;;;5075118;28;20066;-80
2023/12/01 03:42:11;;;;;;;59.87;21.40;;;2.20;99.90;;;;;;5086029;28;20056;-81
2023/12/01 03:44:37;;;;;;;55.50;20.67;;;2.20;99.90;;;;;;5084121;28;20475;-79
2023/12/01 03:47:03;;;;;;;61.13;22.43;;;2.20;99.90;;;;;;5066673;28;20062;-80
2023/12/01 03:49:29;;;;;;;56.70;21.40;;;2.20;99.90;;;;;;5082634;28;20387;-80
2023/12/01 03:51:54;;;;;;;62.67;22.73;;;2.20;99.90;;;;;;5065620;28;20029;-79
2023/12/01 03:54:20;;;;;;;61.93;21.83;;;2.20;99.90;;;;;;5067084;28;20044;-80
2023/12/01 03:56:46;;;;;;;55.10;22.20;;;2.30;99.90;;;;;;5080941;28;20033;-81
2023/12/01 03:59:12;;;;;;;63.83;23.63;;;2.30;99.90;;;;;;5082435;28;20029;-81
2023/12/01 04:01:38;;;;;;;52.67;21.13;;;2.30;99.90;;;;;;5066249;28;20395;-81
2023/12/01 04:04:04;;;;;;;55.97;21.37;;;2.30;99.90;;;;;;5081622;28;20398;-79
2023/12/01 04:06:33;;;;;;;57.57;21.70;;;2.30;99.90;;;;;;5067228;28;20462;-80
2023/12/01 04:09:05;;;;;;;55.70;22.03;;;2.30;99.90;;;;;;5065537;28;20473;-80
2023/12/01 04:11:32;;;;;;;48.33;20.00;;;2.30;99.90;;;;;;5082477;28;20029;-80
2023/12/01 04:13:57;;;;;;;48.90;18.80;;;2.30;99.90;;;;;;5080402;28;20025;-79
2023/12/01 04:16:24;;;;;;;50.30;19.53;;;2.40;99.90;;;;;;5066637;28;20044;-79
2023/12/01 04:18:51;;;;;;;51.90;19.17;;;2.40;99.90;;;;;;5081223;28;20079;-79
2023/12/01 04:21:17;;;;;;;44.13;17.97;;;2.50;99.90;;;;;;5081550;28;20462;-79
2023/12/01 04:23:42;;;;;;;52.07;20.80;;;2.40;99.90;;;;;;5067023;28;20021;-79
2023/12/01 04:26:08;;;;;;;52.47;19.53;;;2.40;99.90;;;;;;5080563;28;20470;-80
2023/12/01 04:28:34;;;;;;;52.37;19.90;;;2.50;99.90;;;;;;5081838;28;20028;-79
2023/12/01 04:30:59;;;;;;;50.33;19.03;;;2.50;99.90;;;;;;5064559;28;20467;-79
2023/12/01 04:33:25;;;;;;;47.63;19.77;;;2.50;99.90;;;;;;5081942;28;20033;-79
2023/12/01 04:35:50;;;;;;;51.50;19.83;;;2.50;99.90;;;;;;5065424;28;20056;-80
2023/12/01 04:38:16;;;;;;;50.07;20.20;;;2.50;99.90;;;;;;5066206;28;20102;-81
2023/12/01 04:40:42;;;;;;;47.97;18.63;;;2.50;99.90;;;;;;5080935;28;20037;-80
2023/12/01 04:43:08;;;;;;;50.57;20.17;;;2.50;99.90;;;;;;5079900;28;20025;-80
2023/12/01 04:45:37;;;;;;;55.97;21.53;;;2.50;99.90;;;;;;5066165;28;20505;-80
2023/12/01 04:48:02;;;;;;;54.87;22.10;;;2.50;99.90;;;;;;5064114;28;20052;-80
2023/12/01 04:50:30;;;;;;;59.17;22.63;;;2.50;99.90;;;;;;5065316;28;20032;-80
2023/12/01 04:52:58;;;;;;;54.10;21.10;;;2.50;99.90;;;;;;5080266;28;20494;-80
2023/12/01 04:55:28;;;;;;;57.93;23.10;;;2.40;99.90;;;;;;5065593;28;20027;-80
2023/12/01 04:57:54;;;;;;;69.77;25.47;;;2.40;99.90;;;;;;5081252;28;20437;-80
2023/12/01 05:00:25;;;;;;;58.67;22.43;;;2.40;99.90;;;;;;5064498;28;20032;-81
2023/12/01 05:02:55;;;;;;;65.80;24.33;;;2.30;99.90;;;;;;5081569;28;20032;-81
2023/12/01 05:05:26;;;;;;;65.50;25.17;;;2.30;99.90;;;;;;5079591;28;20031;-81
2023/12/01 05:07:57;;;;;;;62.50;22.77;;;2.30;99.90;;;;;;5081247;28;20017;-81
2023/12/01 05:10:24;;;;;;;67.13;24.57;;;2.30;99.90;;;;;;5065347;28;20045;-81
2023/12/01 05:13:05;;;;;;;69.17;25.90;;;2.30;99.90;;;;;;5079770;28;20040;-81
2023/12/01 05:15:36;;;;;;;64.93;24.67;;;2.30;99.90;;;;;;5065942;28;20021;-81
2023/12/01 05:18:05;;;;;;;61.87;23.30;;;2.30;99.90;;;;;;5079116;28;20035;-81
2023/12/01 05:20:31;;;;;;;61.13;22.70;;;2.30;99.90;;;;;;5065778;28;20032;-81
2023/12/01 05:23:10;;;;;;;57.97;23.43;;;2.30;99.90;;;;;;5064500;28;20079;-80
2023/12/01 05:25:38;;;;;;;57.73;21.97;;;2.30;99.90;;;;;;5063608;28;20090;-80
2023/12/01 05:28:08;;;;;;;59.67;23.27;;;2.30;99.90;;;;;;5081071;28;20032;-80
2023/12/01 05:30:36;;;;;;;65.10;24.80;;;2.40;99.90;;;;;;5073851;28;20021;-81
2023/12/01 05:33:04;;;;;;;66.30;23.47;;;2.30;99.90;;;;;;5080842;28;20112;-80
2023/12/01 05:35:31;;;;;;;60.97;24.33;;;2.40;99.90;;;;;;5078985;28;20036;-81
2023/12/01 05:37:58;;;;;;;67.47;25.37;;;2.40;99.90;;;;;;5080597;28;20032;-80
2023/12/01 05:40:29;;;;;;;64.47;24.10;;;2.40;99.90;;;;;;5080677;28;20044;-80
2023/12/01 05:42:56;;;;;;;63.40;23.97;;;2.40;99.90;;;;;;5082764;28;20048;-80
2023/12/01 05:45:24;;;;;;;62.60;23.23;;;2.40;99.90;;;;;;5083762;28;20029;-80
2023/12/01 05:47:52;;;;;;;63.57;24.47;;;2.40;99.90;;;;;;5082263;28;20058;-80
2023/12/01 05:50:25;;;;;;;62.27;25.10;;;2.40;99.90;;;;;;5084954;28;20028;-80
2023/12/01 05:52:53;;;;;;;64.30;23.30;;;2.40;99.90;;;;;;5082184;28;20037;-80
2023/12/01 05:55:23;;;;;;;59.13;23.57;;;2.40;99.90;;;;;;5084540;28;20027;-80
2023/12/01 05:57:51;;;;;;;61.17;22.50;;;2.40;99.90;;;;;;5083522;28;20122;-79
2023/12/01 06:00:30;;;;;;;63.67;24.30;;;2.40;99.90;;;;;;5082195;28;20089;-81
2023/12/01 06:02:58;;;;;;;60.97;22.87;;;2.40;99.90;;;;;;5083217;28;20055;-81
2023/12/01 06:05:23;;;;;;;66.77;24.43;;;2.40;99.90;;;;;;5064677;28;20029;-81
2023/12/01 06:07:56;;;;;;;62.20;24.60;;;2.40;99.90;;;;;;5084715;28;20024;-81
2023/12/01 06:10:24;;;;;;;65.97;24.67;;;2.40;99.90;;;;;;5065424;28;20051;-80
2023/12/01 06:12:50;;;;;;;69.40;26.93;;;2.40;99.90;;;;;;5083586;28;20051;-81
2023/12/01 06:15:17;;;;;;;72.07;27.07;;;2.40;99.90;;;;;;5066379;28;20044;-80
2023/12/01 06:17:47;;;;;;;67.37;25.97;;;2.30;99.90;;;;;;5081506;28;20141;-81
2023/12/01 06:20:18;;;;;;;73.77;26.87;;;2.30;99.90;;;;;;5084369;28;20493;-80
2023/12/01 06:22:56;;;;;;;63.20;24.33;;;2.20;99.90;;;;;;5083009;28;20025;-80
2023/12/01 06:25:32;;;;;;;65.10;23.53;;;2.30;99.90;;;;;;5083993;28;20064;-81
2023/12/01 06:28:03;;;;;;;57.57;22.37;;;2.20;99.90;;;;;;5084290;28;20036;-81
2023/12/01 06:30:33;;;;;;;51.10;20.80;;;2.20;99.90;;;;;;5082789;28;20080;-81
2023/12/01 06:33:00;;;;;;;46.47;18.13;;;2.30;99.90;;;;;;5084237;28;20044;-81
2023/12/01 06:35:26;;;;;;;39.60;17.67;;;2.30;99.90;;;;;;5081036;28;20032;-81
2023/12/01 06:37:52;;;;;;;41.10;16.90;;;2.30;99.90;;;;;;5082745;28;20078;-81
2023/12/01 06:40:20;;;;;;;38.33;16.57;;;2.30;99.90;;;;;;5081496;28;20032;-80
2023/12/01 06:42:51;;;;;;;39.13;15.37;;;2.20;99.90;;;;;;5094361;28;20050;-81
2023/12/01 06:45:26;;;;;;;41.20;14.60;;;2.20;99.90;;;;;;5084306;28;20355;-81
2023/12/01 06:47:53;;;;;;;37.03;14.57;;;2.20;99.90;;;;;;5082375;28;20067;-81
2023/12/01 06:50:21;;;;;;;42.97;15.80;;;2.20;99.90;;;;;;5084201;28;20025;-82
2023/12/01 06:52:52;;;;;;;36.60;14.30;;;2.20;99.80;;;;;;5082237;28;20033;-81
2023/12/01 06:55:18;;;;;;;40.53;15.27;;;2.20;99.80;;;;;;5079271;28;20111;-81
2023/12/01 06:57:47;;;;;;;43.60;16.03;;;2.20;99.60;;;;;;5068545;28;20020;-81
2023/12/01 07:00:29;;;;;;;38.57;14.70;;;2.10;99.40;;;;;;5086295;28;20025;-81
2023/12/01 07:02:59;;;;;;;36.30;14.67;;;2.10;99.50;;;;;;5066046;28;20032;-80
2023/12/01 07:05:29;;;;;;;30.17;12.37;;;2.10;99.50;;;;;;5063799;28;20037;-81
2023/12/01 07:07:56;;;;;;;35.03;13.53;;;2.10;99.60;;;;;;5109149;28;20016;-81
2023/12/01 07:10:22;;;;;;;31.60;12.87;;;2.20;99.70;;;;;;5088491;28;20059;-81
2023/12/01 07:12:49;;;;;;;35.97;14.03;;;2.10;99.60;;;;;;5083920;28;20028;-81
2023/12/01 07:15:20;;;;;;;30.13;11.60;;;2.10;99.70;;;;;;5084755;28;20024;-81
2023/12/01 07:17:51;;;;;;;33.00;11.63;;;2.20;99.80;;;;;;5088618;28;20035;-81
2023/12/01 07:20:18;;;;;;;27.73;10.60;;;2.20;99.80;;;;;;5109492;28;20028;-81
2023/12/01 07:22:44;;;;;;;34.30;12.87;;;2.20;99.80;;;;;;5112658;28;20028;-81
2023/12/01 07:25:21;;;;;;;29.47;11.13;;;2.10;99.70;;;;;;5095942;28;20026;-81
2023/12/01 07:27:54;;;;;;;25.43;11.67;;;2.20;99.60;;;;;;5097967;28;20030;-81
2023/12/01 07:30:20;;;;;;;32.17;13.03;;;2.20;99.70;;;;;;5120001;28;20030;-81
2023/12/01 07:32:47;;;;;;;32.60;13.17;;;2.20;99.80;;;;;;5072459;28;20062;-81
2023/12/01 07:35:13;;;;;;;33.23;11.87;;;2.20;99.80;;;;;;5101842;28;20069;-81
2023/12/01 07:37:42;;;;;;;32.13;12.80;;;2.20;99.80;;;;;;5084895;28;20036;-81
2023/12/01 07:40:13;;;;;;;34.83;13.73;;;2.20;99.70;;;;;;5086543;28;20088;-81
2023/12/01 07:42:40;;;;;;;32.90;12.30;;;2.30;99.70;;;;;;5091839;28;20070;-81
2023/12/01 07:45:07;;;;;;;34.90;13.40;;;2.30;99.50;;;;;;5085461;28;20024;-81
2023/12/01 07:47:33;;;;;;;36.20;14.37;;;2.30;99.50;;;;;;5083618;28;20027;-81
2023/12/01 07:49:59;;;;;;;36.33;13.97;;;2.20;99.40;;;;;;5111708;28;20028;-81
2023/12/01 07:52:25;;;;;;;34.47;13.70;;;2.20;99.20;;;;;;5101859;28;20023;-81
2023/12/01 07:54:50;;;;;;;33.97;13.23;;;2.10;99.20;;;;;;5105361;28;20045;-81
2023/12/01 07:57:16;;;;;;;32.97;12.83;;;2.20;99.20;;;;;;5104471;28;20065;-85
2023/12/01 07:59:42;;;;;;;28.93;11.50;;;2.20;99.10;;;;;;5105315;28;20063;-87
2023/12/01 08:02:09;;;;;;;31.63;12.67;;;2.20;99.10;;;;;;5105985;28;20031;-87
2023/12/01 08:04:35;;;;;;;33.73;14.03;;;2.20;99.00;;;;;;5104309;28;20023;-86
2023/12/01 08:07:01;;;;;;;28.73;11.93;;;2.20;98.90;;;;;;5098410;28;20381;-87
2023/12/01 08:09:31;;;;;;;32.10;11.60;;;2.20;98.90;;;;;;5083824;28;20044;-86
2023/12/01 08:11:59;;;;;;;27.93;10.33;;;2.20;99.10;;;;;;5085185;28;20028;-86
2023/12/01 08:14:25;;;;;;;26.73;11.57;;;2.20;99.00;;;;;;5102143;28;20079;-86
2023/12/01 08:16:52;;;;;;;33.27;11.97;;;2.20;98.90;;;;;;5103079;28;20028;-86
2023/12/01 08:19:17;;;;;;;30.07;13.20;;;2.20;98.70;;;;;;5085403;28;20024;-87
2023/12/01 08:21:44;;;;;;;25.63;11.07;;;2.20;98.60;;;;;;5083344;28;20024;-87
2023/12/01 08:24:12;;;;;;;31.10;12.30;;;2.10;98.60;;;;;;5085137;28;20028;-86
2023/12/01 08:26:38;;;;;;;31.63;12.67;;;2.10;98.60;;;;;;5085320;28;20027;-87
2023/12/01 08:29:04;;;;;;;24.40;11.13;;;2.10;98.70;;;;;;5088971;28;20456;-85
2023/12/01 08:31:32;;;;;;;26.50;10.63;;;2.10;98.70;;;;;;5087684;28;20024;-86
2023/12/01 08:33:58;;;;;;;25.80;10.40;;;2.10;98.80;;;;;;5087730;28;20118;-86
2023/12/01 08:36:24;;;;;;;25.53;10.53;;;2.10;98.80;;;;;;5088593;28;20023;-87
2023/12/01 08:38:50;;;;;;;23.13;9.60;;;2.10;98.80;;;;;;5087103;28;20027;-86
2023/12/01 08:41:16;;;;;;;27.40;9.50;;;2.10;98.80;;;;;;5084959;28;20115;-85
2023/12/01 08:43:41;;;;;;;24.87;9.53;;;2.10;98.70;;;;;;5083700;28;20029;-87
2023/12/01 08:46:07;;;;;;;26.13;10.07;;;2.10;98.80;;;;;;5085062;28;20012;-86
2023/12/01 08:48:33;;;;;;;22.27;8.50;;;2.10;98.80;;;;;;5083512;28;20080;-86
2023/12/01 08:50:59;;;;;;;27.23;9.47;;;2.10;98.70;;;;;;5086198;28;20031;-87
2023/12/01 08:53:24;;;;;;;23.67;10.53;;;2.20;98.60;;;;;;5085804;28;20031;-86
2023/12/01 08:55:50;;;;;;;25.87;9.93;;;2.30;98.60;;;;;;5083913;28;20017;-87
2023/12/01 08:58:18;;;;;;;22.53;9.17;;;2.20;98.60;;;;;;5084956;28;20020;-87
2023/12/01 09:00:44;;;;;;;23.53;9.13;;;2.30;98.70;;;;;;5084732;28;20021;-86
2023/12/01 09:03:10;;;;;;;25.60;10.07;;;2.30;98.70;;;;;;5084984;28;20059;-87
2023/12/01 09:05:35;;;;;;;23.13;8.70;;;2.30;98.70;;;;;;5083576;28;20468;-86
2023/12/01 09:08:05;;;;;;;25.77;9.80;;;2.40;98.60;;;;;;5084629;28;20096;-85
2023/12/01 09:10:31;;;;;;;27.53;9.83;;;2.40;98.60;;;;;;5084518;28;20021;-86
2023/12/01 09:12:57;;;;;;;22.50;8.97;;;2.40;97.80;;;;;;5083380;28;20025;-87
2023/12/01 09:15:23;;;;;;;25.53;9.47;;;2.40;97.80;;;;;;5084747;28;20016;-87
2023/12/01 09:17:49;;;;;;;25.20;9.67;;;2.40;97.70;;;;;;5082888;28;20039;-87
2023/12/01 09:20:15;;;;;;;27.67;10.87;;;2.30;97.40;;;;;;5084724;28;20020;-88
2023/12/01 09:22:40;;;;;;;21.63;8.70;;;2.30;97.40;;;;;;5083159;28;20044;-87
2023/12/01 09:25:06;;;;;;;28.50;10.20;;;2.30;97.50;;;;;;5084744;28;20107;-87
2023/12/01 09:27:32;;;;;;;26.13;10.27;;;2.30;97.20;;;;;;5083701;28;20058;-88
2023/12/01 09:29:58;;;;;;;24.77;10.60;;;2.30;96.80;;;;;;5083426;28;20418;-87
2023/12/01 09:32:23;;;;;;;25.00;9.67;;;2.30;96.80;;;;;;5084252;28;20059;-87
2023/12/01 09:34:50;;;;;;;25.00;9.53;;;2.20;96.60;;;;;;5082744;28;20047;-86
2023/12/01 09:37:16;;;;;;;27.10;11.50;;;2.30;96.40;;;;;;5083567;28;20032;-87
2023/12/01 09:39:42;;;;;;;25.33;10.57;;;2.30;96.10;;;;;;5082565;28;20017;-87
2023/12/01 09:42:08;;;;;;;25.70;10.53;;;2.20;95.80;;;;;;5081457;28;20045;-86
2023/12/01 09:44:35;;;;;;;26.60;10.77;;;2.20;95.90;;;;;;5083286;28;20078;-86
2023/12/01 09:47:02;;;;;;;25.77;10.70;;;2.20;96.10;;;;;;5082934;28;20169;-86
2023/12/01 09:49:34;;;;;;;27.37;10.00;;;2.20;96.10;;;;;;5084400;28;20056;-86
2023/12/01 09:52:04;;;;;;;34.43;13.37;;;2.20;96.20;;;;;;5082860;28;20119;-87
2023/12/01 09:54:30;;;;;;;32.77;12.20;;;2.30;96.10;;;;;;5085452;28;20033;-88
2023/12/01 09:56:58;;;;;;;26.23;10.67;;;2.30;96.50;;;;;;5082377;28;20032;-87
2023/12/01 09:59:23;;;;;;;25.67;10.80;;;2.50;97.00;;;;;;5084195;28;20029;-88
2023/12/01 10:01:52;;;;;;;23.33;9.77;;;2.90;98.30;;;;;;5083369;28;20024;-85
2023/12/01 10:04:19;;;;;;;21.07;8.50;;;3.50;99.90;;;;;;5083574;28;20046;-87
2023/12/01 10:06:45;;;;;;;21.63;9.13;;;4.00;99.90;;;;;;5083962;28;20030;-87
2023/12/01 10:09:12;;;;;;;21.63;8.73;;;4.20;99.50;;;;;;5083803;28;20048;-86
2023/12/01 10:11:38;;;;;;;23.83;8.43;;;4.20;99.00;;;;;;5086580;28;20048;-87
2023/12/01 10:14:07;;;;;;;22.37;9.80;;;4.30;98.60;;;;;;5088329;28;20043;-87
2023/12/01 10:16:35;;;;;;;20.03;8.27;;;4.20;98.00;;;;;;5084282;28;20033;-88
2023/12/01 10:19:04;;;;;;;22.60;9.57;;;4.20;97.70;;;;;;5084137;28;20480;-86
2023/12/01 10:21:56;;;;;;;23.87;9.77;;;4.20;96.80;;;;;;5081974;28;20049;-87
2023/12/01 10:24:22;;;;;;;22.47;9.53;;;4.10;96.50;;;;;;5081759;28;20041;-87
2023/12/01 10:26:56;;;;;;;23.23;9.83;;;3.90;95.20;;;;;;5081646;28;20013;-87
2023/12/01 10:29:30;;;;;;;21.17;8.85;;;3.80;95.50;;;;;;5084305;28;20024;-87
2023/12/01 10:32:07;;;;;;;22.40;9.90;;;3.80;95.70;;;;;;5084087;28;20096;-86
2023/12/01 10:34:33;;;;;;;23.77;8.70;;;3.60;95.30;;;;;;5081586;28;20032;-86
2023/12/01 10:36:59;;;;;;;21.57;8.60;;;3.60;95.10;;;;;;5083405;28;20021;-87
2023/12/01 10:39:29;;;;;;;22.13;9.87;;;3.60;95.20;;;;;;5082591;28;20112;-87
2023/12/01 10:41:58;;;;;;;20.27;8.43;;;3.60;95.20;;;;;;5082492;28;20040;-85
2023/12/01 10:44:26;;;;;;;22.13;9.10;;;3.50;95.20;;;;;;5082103;28;20035;-86
2023/12/01 10:46:54;;;;;;;23.67;8.77;;;3.50;95.10;;;;;;5081971;28;20108;-87
2023/12/01 10:49:21;;;;;;;20.87;9.03;;;3.50;95.20;;;;;;5082241;28;20020;-87
2023/12/01 10:51:52;;;;;;;21.63;8.50;;;3.50;95.20;;;;;;5082892;28;20024;-87
2023/12/01 10:54:21;;;;;;;18.10;7.43;;;3.50;95.10;;;;;;5083537;28;20035;-86
2023/12/01 10:57:09;;;;;;;24.03;9.70;;;3.50;95.00;;;;;;5081139;28;20017;-85
2023/12/01 10:59:37;;;;;;;19.83;8.50;;;3.50;94.40;;;;;;5083854;28;20025;-86
2023/12/01 11:02:06;;;;;;;26.17;9.40;;;3.50;94.60;;;;;;5082399;28;20017;-87
2023/12/01 11:04:33;;;;;;;23.27;9.37;;;3.50;94.60;;;;;;5064456;28;20036;-87
2023/12/01 11:07:04;;;;;;;22.30;8.37;;;3.50;94.70;;;;;;5083869;28;20077;-87
2023/12/01 11:09:58;;;;;;;21.70;8.90;;;3.50;94.80;;;;;;5080954;28;20047;-87
2023/12/01 11:12:45;;;;;;;20.98;9.60;;;3.60;94.60;;;;;;5082139;28;20028;-86
2023/12/01 11:15:19;;;;;;;24.50;10.10;;;3.60;93.80;;;;;;5082172;28;20044;-87
2023/12/01 11:17:46;;;;;;;19.83;9.27;;;3.60;94.10;;;;;;5081357;28;20496;-88
2023/12/01 11:20:43;;;;;;;21.77;9.30;;;3.60;94.20;;;;;;5084387;28;20043;-87
2023/12/01 11:23:11;;;;;;;23.53;9.60;;;3.60;94.20;;;;;;5065625;28;20036;-87
2023/12/01 11:25:46;;;;;;;23.37;9.13;;;3.50;94.10;;;;;;5081420;28;20025;-87
2023/12/01 11:28:45;;;;;;;21.53;8.73;;;3.50;94.20;;;;;;5082673;28;20452;-87
2023/12/01 11:31:37;;;;;;;23.30;9.17;;;3.50;94.00;;;;;;5083641;28;20021;-88
2023/12/01 11:34:04;;;;;;;23.03;9.53;;;3.50;94.10;;;;;;5082775;28;20052;-87
2023/12/01 11:36:37;;;;;;;22.43;8.83;;;3.50;94.10;;;;;;5083199;28;20024;-87
2023/12/01 11:41:42;;;;;;;23.97;9.33;;;3.50;93.90;;;;;;5092869;28;20573;-87
2023/12/01 11:44:29;;;;;;;21.53;8.30;;;3.40;93.70;;;;;;5084125;28;20508;-87
2023/12/01 11:46:57;;;;;;;22.90;9.37;;;3.40;93.70;;;;;;5103277;28;20027;-86
2023/12/01 11:49:44;;;;;;;22.47;8.73;;;3.50;93.70;;;;;;5085539;28;20036;-87
2023/12/01 11:52:14;;;;;;;20.13;7.67;;;3.40;93.80;;;;;;5084108;28;20028;-87
2023/12/01 11:54:41;;;;;;;19.27;7.67;;;3.40;93.80;;;;;;5085726;28;20043;-86
2023/12/01 11:57:09;;;;;;;20.30;8.67;;;3.30;93.70;;;;;;5102182;28;20032;-87
2023/12/01 11:59:35;;;;;;;17.43;7.13;;;3.40;93.70;;;;;;5085553;28;20036;-86
2023/12/01 12:02:02;;;;;;;21.47;8.67;;;3.40;93.80;;;;;;5107280;28;20025;-86
2023/12/01 12:04:28;;;;;;;21.13;8.80;;;3.40;93.20;;;;;;5088197;28;20032;-86
2023/12/01 12:06:55;;;;;;;26.17;9.97;;;3.40;92.90;;;;;;5089213;28;20107;-86
2023/12/01 12:09:21;;;;;;;22.63;8.87;;;3.30;92.80;;;;;;5088358;28;20016;-86
2023/12/01 12:11:57;;;;;;;20.70;8.70;;;3.20;92.90;;;;;;5108344;28;20020;-86
2023/12/01 12:14:24;;;;;;;21.60;9.10;;;3.20;93.00;;;;;;5088644;28;20085;-86
2023/12/01 12:16:50;;;;;;;21.50;9.17;;;3.00;92.90;;;;;;5088849;28;20031;-86
2023/12/01 12:19:17;;;;;;;22.27;8.70;;;3.10;92.80;;;;;;5089018;28;20419;-85
2023/12/01 12:21:43;;;;;;;27.77;10.17;;;3.10;92.80;;;;;;5087229;28;20086;-86
2023/12/01 12:24:10;;;;;;;26.73;11.00;;;3.10;92.60;;;;;;5088943;28;20020;-86
2023/12/01 12:26:36;;;;;;;21.03;8.83;;;3.00;92.40;;;;;;5086672;28;20024;-86
2023/12/01 12:29:04;;;;;;;28.47;10.90;;;2.90;92.30;;;;;;5088859;28;20026;-86
2023/12/01 12:31:33;;;;;;;27.83;12.60;;;2.90;92.10;;;;;;5105821;28;20023;-85
2023/12/01 12:34:00;;;;;;;26.73;9.73;;;2.80;92.00;;;;;;5088423;28;20054;-86
2023/12/01 12:36:27;;;;;;;29.20;12.03;;;2.70;92.00;;;;;;5088310;28;20027;-86
2023/12/01 12:38:53;;;;;;;28.07;11.83;;;2.70;92.10;;;;;;5069916;28;20040;-86
2023/12/01 12:41:26;;;;;;;29.20;11.53;;;2.60;91.90;;;;;;5099380;28;20181;-86
2023/12/01 12:43:56;;;;;;;26.37;10.87;;;2.60;92.00;;;;;;5085062;28;20032;-86
2023/12/01 12:46:23;;;;;;;25.23;10.03;;;2.60;92.00;;;;;;5084223;28;20032;-85